Time;durP1;ratioP1;P1;durP2;ratioP2;P2;SDS_P1;SDS_P2;PMS_P1;PMS_P2;Temp;Humidity;BMP_temperature;BMP_pressure;BME280_temperature;BME280_humidity;BME280_pressure;Samples;Min_cycle;Max_cycle;Signal;HPM_P1;HPM_P2
2022/05/29 00:00:51;;;;;;;6.03;1.98;;;;;;;11.59;67.93;101874.19;5015754;28;20134;-73
2022/05/29 00:03:16;;;;;;;4.57;1.50;;;;;;;11.60;68.63;101879.41;5013638;28;20705;-73
2022/05/29 00:05:43;;;;;;;5.72;1.80;;;;;;;11.55;68.43;101875.78;5026465;28;20033;-75
2022/05/29 00:08:14;;;;;;;5.78;1.92;;;;;;;11.44;68.14;101862.47;5021058;28;20030;-72
2022/05/29 00:10:41;;;;;;;6.15;1.77;;;;;;;11.37;68.55;101863.03;5027562;28;20072;-75
2022/05/29 00:13:07;;;;;;;5.63;1.63;;;;;;;11.34;68.36;101864.59;5020855;28;20056;-75
2022/05/29 00:15:33;;;;;;;7.93;1.77;;;;;;;11.30;68.77;101855.00;5023151;28;20033;-74
2022/05/29 00:17:58;;;;;;;10.00;1.95;;;;;;;11.32;68.46;101855.94;5021721;28;20041;-75
2022/05/29 00:20:23;;;;;;;7.50;2.10;;;;;;;11.28;68.90;101853.25;5026638;28;20034;-75
2022/05/29 00:22:49;;;;;;;9.20;1.77;;;;;;;11.22;68.94;101847.84;5021202;28;20035;-76
2022/05/29 00:25:14;;;;;;;5.82;1.70;;;;;;;11.25;69.10;101853.09;5022092;28;20495;-74
2022/05/29 00:27:40;;;;;;;5.80;1.80;;;;;;;11.24;69.09;101855.63;5027136;28;20056;-74
2022/05/29 00:30:09;;;;;;;6.70;1.92;;;;;;;11.26;68.87;101848.84;5021195;28;20037;-74
2022/05/29 00:32:34;;;;;;;5.55;2.22;;;;;;;11.20;69.43;101846.00;5017457;28;20034;-74
2022/05/29 00:35:00;;;;;;;5.75;1.80;;;;;;;11.20;69.74;101846.00;5022874;28;20428;-76
2022/05/29 00:37:25;;;;;;;5.30;1.80;;;;;;;11.15;69.65;101843.25;5016667;28;20117;-75
2022/05/29 00:39:53;;;;;;;6.72;1.77;;;;;;;11.08;70.17;101838.66;5019185;28;20079;-76
2022/05/29 00:42:22;;;;;;;6.22;1.55;;;;;;;11.22;70.01;101837.56;5016127;28;20052;-75
2022/05/29 00:44:48;;;;;;;7.25;2.13;;;;;;;11.22;69.79;101831.50;5026296;28;20377;-75
2022/05/29 00:47:19;;;;;;;8.45;1.80;;;;;;;11.14;69.53;101833.75;5020835;28;20049;-74
2022/05/29 00:49:48;;;;;;;8.25;2.00;;;;;;;11.10;69.91;101829.34;5026072;28;20593;-76
2022/05/29 00:52:18;;;;;;;7.97;2.03;;;;;;;11.14;69.88;101831.19;5017569;28;20021;-74
2022/05/29 00:54:49;;;;;;;10.48;2.00;;;;;;;11.15;70.63;101832.06;5024282;28;20075;-75
2022/05/29 00:57:19;;;;;;;6.03;1.60;;;;;;;11.18;70.49;101824.47;5027524;28;20043;-74
2022/05/29 00:59:45;;;;;;;;;;;;;;;11.39;68.10;101824.47;5023314;28;20033;-74
2022/05/29 01:02:10;;;;;;;9.32;2.10;;;;;;;11.25;70.46;101827.38;5023962;28;20287;-74
2022/05/29 01:04:38;;;;;;;9.45;2.17;;;;;;;11.31;70.37;101826.72;5021696;28;20037;-75
2022/05/29 01:07:06;;;;;;;6.60;1.63;;;;;;;11.25;70.48;101819.63;5025296;28;20036;-74
2022/05/29 01:09:33;;;;;;;8.85;2.17;;;;;;;11.21;70.62;101815.16;5021778;28;20060;-74
2022/05/29 01:12:01;;;;;;;5.53;1.90;;;;;;;11.26;70.62;101818.81;5025581;28;20084;-74
2022/05/29 01:14:47;;;;;;;10.27;1.83;;;;;;;11.30;69.93;101814.69;5025848;28;20051;-75
2022/05/29 01:17:52;;;;;;;7.72;1.70;;;;;;;11.30;69.59;101813.81;5022785;28;20642;-75
2022/05/29 01:20:54;;;;;;;6.88;1.70;;;;;;;11.29;69.71;101812.94;5015187;28;20037;-75
2022/05/29 01:23:28;;;;;;;8.45;2.10;;;;;;;11.20;70.26;101810.84;5023701;28;20030;-74
2022/05/29 01:26:15;;;;;;;6.78;1.73;;;;;;;11.24;70.13;101805.00;5008136;28;20068;-74
2022/05/29 01:28:50;;;;;;;11.82;2.10;;;;;;;11.17;70.15;101802.13;5028060;28;20033;-75
2022/05/29 01:31:51;;;;;;;5.68;1.80;;;;;;;11.20;69.86;101792.81;5018006;28;20137;-75
2022/05/29 01:34:36;;;;;;;10.82;2.20;;;;;;;11.20;69.89;101797.09;5028772;28;20380;-75
2022/05/29 01:37:21;;;;;;;6.70;1.60;;;;;;;11.11;70.22;101795.03;5022522;28;20048;-74
2022/05/29 01:40:21;;;;;;;7.45;2.10;;;;;;;11.17;69.92;101797.88;5025259;28;20017;-74
2022/05/29 01:42:57;;;;;;;10.13;1.80;;;;;;;11.11;70.32;101797.63;5029638;28;20020;-74
2022/05/29 01:45:25;;;;;;;7.75;1.92;;;;;;;11.07;70.17;101794.84;5023216;28;20036;-74
2022/05/29 01:48:01;;;;;;;8.55;2.20;;;;;;;11.05;70.27;101794.78;5019378;28;20025;-74
2022/05/29 01:50:37;;;;;;;7.13;1.90;;;;;;;10.99;70.91;101787.69;5022690;28;20080;-75
2022/05/29 01:53:11;;;;;;;7.85;1.98;;;;;;;11.07;70.39;101780.28;5021422;28;20512;-75
2022/05/29 01:55:45;;;;;;;8.63;2.20;;;;;;;11.00;70.62;101774.00;5024868;28;20083;-75
2022/05/29 01:58:17;;;;;;;10.25;2.38;;;;;;;10.87;71.09;101773.47;5024069;28;20392;-74
2022/05/29 02:00:46;;;;;;;9.27;1.90;;;;;;;10.88;71.22;101775.22;5025868;28;20021;-74
2022/05/29 02:03:24;;;;;;;8.63;1.93;;;;;;;10.93;70.89;101779.72;5015497;28;20044;-74
2022/05/29 02:05:55;;;;;;;7.05;2.13;;;;;;;10.89;71.60;101776.97;5021953;28;20100;-75
2022/05/29 02:08:20;;;;;;;7.68;2.10;;;;;;;10.91;71.52;101778.75;5018792;28;20102;-75
2022/05/29 02:10:57;;;;;;;10.50;2.78;;;;;;;10.92;71.70;101777.97;5024567;28;20063;-75
2022/05/29 02:13:33;;;;;;;10.07;2.55;;;;;;;10.91;71.58;101775.31;5016568;28;20053;-76
2022/05/29 02:15:58;;;;;;;9.30;2.10;;;;;;;10.88;71.82;101773.50;5029688;28;20028;-74
2022/05/29 02:18:49;;;;;;;8.10;2.40;;;;;;;10.94;70.87;101772.88;5026578;28;20372;-74
2022/05/29 02:21:39;;;;;;;7.38;2.17;;;;;;;10.83;72.00;101764.72;5015564;28;20045;-74
2022/05/29 02:24:10;;;;;;;7.40;2.30;;;;;;;10.91;72.53;101767.59;5016309;28;20069;-75
2022/05/29 02:26:40;;;;;;;9.10;2.63;;;;;;;10.81;71.88;101758.63;5015981;28;20039;-75
2022/05/29 02:29:11;;;;;;;6.53;2.25;;;;;;;10.89;71.88;101764.09;5022502;28;20353;-75
2022/05/29 02:31:41;;;;;;;9.60;2.22;;;;;;;10.83;71.75;101763.84;5018108;28;20452;-75
2022/05/29 02:34:34;;;;;;;5.05;2.08;;;;;;;10.92;71.55;101753.91;5023029;28;20036;-74
2022/05/29 02:37:16;;;;;;;8.57;2.33;;;;;;;10.86;71.68;101749.41;5019263;28;20029;-74
2022/05/29 02:40:03;;;;;;;9.60;2.47;;;;;;;10.86;71.68;101743.38;5026174;28;20021;-74
2022/05/29 02:42:40;;;;;;;5.10;2.13;;;;;;;10.85;71.73;101744.19;5023349;28;20069;-75
2022/05/29 02:45:19;;;;;;;5.80;2.38;;;;;;;10.80;72.66;101740.53;5017308;28;20026;-75
2022/05/29 02:47:50;;;;;;;9.73;2.55;;;;;;;10.84;72.48;101748.47;5020457;28;20032;-74
2022/05/29 02:50:34;;;;;;;8.57;2.40;;;;;;;10.89;72.11;101746.09;5024720;28;20048;-75
2022/05/29 02:53:06;;;;;;;6.95;2.00;;;;;;;10.86;72.33;101740.78;5025260;28;20029;-75
2022/05/29 02:55:32;;;;;;;7.50;2.33;;;;;;;10.86;72.97;101736.56;5023007;28;20053;-74
2022/05/29 02:58:04;;;;;;;8.50;2.10;;;;;;;10.90;72.86;101733.28;5023762;28;20115;-74
2022/05/29 03:00:52;;;;;;;8.45;2.13;;;;;;;10.87;72.64;101740.00;5019724;28;20017;-74
2022/05/29 03:03:44;;;;;;;9.50;2.17;;;;;;;10.91;72.39;101735.03;5025329;28;20021;-74
2022/05/29 03:06:28;;;;;;;8.80;1.90;;;;;;;10.95;72.51;101741.19;5019218;28;20487;-75
2022/05/29 03:09:02;;;;;;;10.40;2.30;;;;;;;10.94;72.39;101730.00;5022715;28;20166;-74
2022/05/29 03:11:41;;;;;;;8.13;1.95;;;;;;;10.93;72.08;101737.69;5024510;28;20025;-75
2022/05/29 03:14:09;;;;;;;7.82;2.20;;;;;;;10.83;72.61;101736.41;5019712;28;20068;-74
2022/05/29 03:17:15;;;;;;;6.55;1.90;;;;;;;10.95;72.11;101734.34;5015177;28;20037;-76
2022/05/29 03:19:52;;;;;;;8.40;2.05;;;;;;;10.85;72.57;101724.47;5025276;28;20056;-75
2022/05/29 03:22:49;;;;;;;14.13;2.40;;;;;;;10.83;72.71;101732.97;5025451;28;20053;-75
2022/05/29 03:25:48;;;;;;;11.77;2.25;;;;;;;10.88;72.06;101732.34;5019024;28;20616;-75
2022/05/29 03:28:30;;;;;;;8.23;2.15;;;;;;;10.82;72.79;101729.53;4983325;28;20049;-75
2022/05/29 03:30:58;;;;;;;7.78;2.25;;;;;;;10.74;73.04;101730.91;5021855;28;20072;-74
2022/05/29 03:33:24;;;;;;;8.38;2.22;;;;;;;10.74;73.50;101730.91;5023048;28;20101;-75
2022/05/29 03:35:52;;;;;;;10.68;2.40;;;;;;;10.77;73.00;101732.72;5025331;28;20099;-74
2022/05/29 03:38:18;;;;;;;6.10;1.83;;;;;;;10.78;73.08;101731.91;5019568;28;20479;-74
2022/05/29 03:40:43;;;;;;;9.75;2.20;;;;;;;10.73;73.72;101724.84;5027584;28;20083;-74
2022/05/29 03:43:09;;;;;;;7.13;2.30;;;;;;;10.67;73.94;101727.19;5024439;28;20825;-75
2022/05/29 03:45:34;;;;;;;8.85;2.40;;;;;;;10.69;73.19;101730.72;5022708;28;20049;-76
2022/05/29 03:48:01;;;;;;;8.93;2.03;;;;;;;10.66;73.45;101725.44;5026287;28;20033;-75
2022/05/29 03:50:27;;;;;;;9.50;2.35;;;;;;;10.65;74.05;101723.69;5031024;28;20032;-74
2022/05/29 03:52:53;;;;;;;8.30;2.38;;;;;;;10.67;74.36;101716.88;5018253;28;20038;-74
2022/05/29 03:55:26;;;;;;;6.25;2.10;;;;;;;10.74;74.00;101716.34;5021871;28;20113;-75
2022/05/29 03:57:52;;;;;;;7.28;2.05;;;;;;;10.74;74.21;101708.63;5029251;28;20057;-74
2022/05/29 04:00:20;;;;;;;7.05;2.03;;;;;;;10.70;74.37;101721.31;5030679;28;20115;-75
2022/05/29 04:02:46;;;;;;;10.02;2.33;;;;;;;10.68;74.54;101712.66;5025166;28;20169;-75
2022/05/29 04:05:15;;;;;;;8.23;2.30;;;;;;;10.69;74.53;101711.84;5021591;28;20119;-75
2022/05/29 04:13:10;;;;;;;8.88;2.30;;;;;;;10.66;75.32;101710.00;5025675;28;20756;-74
2022/05/29 04:15:41;;;;;;;9.82;2.40;;;;;;;10.69;75.96;101705.00;5025043;28;20033;-74
2022/05/29 04:18:07;;;;;;;9.20;2.50;;;;;;;10.61;75.71;101702.91;5017200;28;20062;-75
2022/05/29 04:20:33;;;;;;;12.98;2.22;;;;;;;10.65;75.93;101699.66;5025477;28;20079;-75
2022/05/29 04:22:58;;;;;;;9.43;2.40;;;;;;;10.72;75.78;101714.50;5023337;28;20388;-76
2022/05/29 04:25:24;;;;;;;9.40;2.22;;;;;;;10.78;76.72;101719.03;5020687;28;20038;-74
2022/05/29 04:27:50;;;;;;;5.43;2.20;;;;;;;10.73;76.71;101714.56;5021449;28;20053;-74
2022/05/29 04:30:15;;;;;;;7.45;2.25;;;;;;;10.77;77.52;101722.44;5026347;28;20131;-76
2022/05/29 04:35:26;;;;;;;10.38;2.70;;;;;;;10.74;78.05;101726.63;5022458;28;20052;-76
2022/05/29 04:37:52;;;;;;;9.05;2.35;;;;;;;10.78;78.23;101724.19;5026042;28;20028;-76
2022/05/29 04:40:17;;;;;;;9.27;2.33;;;;;;;10.76;77.94;101724.13;5024744;28;20033;-75
2022/05/29 04:42:43;;;;;;;8.20;2.58;;;;;;;10.74;78.51;101713.78;5027285;28;20041;-75
2022/05/29 04:45:09;;;;;;;10.32;2.50;;;;;;;10.78;79.32;101711.31;5021094;28;20052;-75
2022/05/29 04:47:34;;;;;;;8.93;2.65;;;;;;;10.82;78.79;101705.50;5014012;28;20033;-74
2022/05/29 04:49:59;;;;;;;9.52;2.13;;;;;;;10.85;78.84;101705.59;5024475;28;20034;-74
2022/05/29 04:52:25;;;;;;;11.60;2.30;;;;;;;10.81;79.68;101701.16;5025427;28;20079;-75
2022/05/29 04:54:51;;;;;;;6.88;2.63;;;;;;;10.78;80.32;101701.03;5021894;28;20029;-74
2022/05/29 04:57:18;;;;;;;6.72;2.13;;;;;;;10.80;80.17;101701.94;5017283;28;20096;-74
2022/05/29 04:59:44;;;;;;;8.00;2.35;;;;;;;10.78;79.77;101696.75;5022688;28;20037;-74
2022/05/29 05:02:09;;;;;;;13.23;3.00;;;;;;;10.79;80.08;101700.19;5021946;28;20032;-74
2022/05/29 05:04:35;;;;;;;9.35;2.95;;;;;;;10.75;80.64;101699.22;5022332;28;20450;-75
2022/05/29 05:07:00;;;;;;;8.15;2.50;;;;;;;10.79;80.50;101697.63;5023625;28;20120;-75
2022/05/29 05:09:27;;;;;;;9.20;2.60;;;;;;;10.71;81.29;101690.50;5020949;28;20067;-75
2022/05/29 05:11:53;;;;;;;9.98;2.60;;;;;;;10.79;81.49;101692.50;5026012;28;20046;-75
2022/05/29 05:14:20;;;;;;;9.05;2.60;;;;;;;10.79;81.28;101698.50;5023037;28;20025;-75
2022/05/29 05:16:46;;;;;;;9.60;2.65;;;;;;;10.81;81.67;101694.31;5021022;28;20040;-75
2022/05/29 05:19:12;;;;;;;7.60;2.50;;;;;;;10.78;80.68;101693.31;5024160;28;20123;-75
2022/05/29 05:21:37;;;;;;;7.25;2.60;;;;;;;10.85;81.79;101695.31;5021408;28;20112;-75
2022/05/29 05:24:04;;;;;;;7.25;2.75;;;;;;;10.74;80.58;101690.63;5022563;28;20544;-75
2022/05/29 05:26:30;;;;;;;5.65;2.53;;;;;;;10.86;82.43;101686.75;5018251;28;20049;-75
2022/05/29 05:28:56;;;;;;;11.55;3.00;;;;;;;10.85;82.18;101690.16;5023161;28;20545;-75
2022/05/29 05:31:22;;;;;;;5.47;2.45;;;;;;;10.80;81.57;101678.81;5026616;28;20060;-75
2022/05/29 05:33:48;;;;;;;8.00;2.75;;;;;;;10.80;82.14;101679.72;5021336;28;20112;-75
2022/05/29 05:36:15;;;;;;;7.70;2.58;;;;;;;10.82;82.20;101679.75;5024908;28;20163;-75
2022/05/29 05:38:40;;;;;;;7.80;2.50;;;;;;;10.84;82.46;101685.84;5014737;28;20469;-75
2022/05/29 05:41:09;;;;;;;7.07;2.50;;;;;;;10.91;82.53;101682.69;5025956;28;20029;-75
2022/05/29 05:43:35;;;;;;;8.35;2.55;;;;;;;10.92;83.01;101677.63;5023961;28;20103;-74
2022/05/29 05:46:00;;;;;;;7.97;2.70;;;;;;;10.94;83.59;101685.41;5019583;28;20485;-75
2022/05/29 05:48:29;;;;;;;6.40;2.40;;;;;;;10.90;82.81;101678.34;5022131;28;20030;-75
2022/05/29 05:50:57;;;;;;;8.23;2.80;;;;;;;10.95;83.48;101682.00;5027900;28;20024;-75
2022/05/29 05:53:22;;;;;;;7.07;2.72;;;;;;;10.99;83.17;101682.19;5022040;28;20025;-75
2022/05/29 05:55:48;;;;;;;8.68;2.75;;;;;;;11.00;83.18;101675.34;5023122;28;20047;-75
2022/05/29 05:58:13;;;;;;;8.48;2.78;;;;;;;11.02;83.48;101678.84;5017923;28;20128;-75
2022/05/29 06:00:38;;;;;;;10.10;2.78;;;;;;;11.06;83.95;101679.84;5014648;28;20465;-75
2022/05/29 06:03:04;;;;;;;9.32;3.08;;;;;;;11.03;83.78;101675.44;5021610;28;20073;-74
2022/05/29 06:05:29;;;;;;;6.13;2.42;;;;;;;11.08;83.55;101678.22;5021070;28;20029;-75
2022/05/29 06:07:55;;;;;;;8.75;2.83;;;;;;;11.09;83.89;101677.38;5025211;28;20085;-75
2022/05/29 06:10:20;;;;;;;8.63;2.70;;;;;;;11.16;84.10;101677.69;5022870;28;20476;-75
2022/05/29 06:12:46;;;;;;;11.77;3.10;;;;;;;11.21;84.00;101681.31;5020151;28;20076;-75
2022/05/29 06:15:11;;;;;;;9.48;2.80;;;;;;;11.27;83.11;101680.66;5022014;28;20040;-75
2022/05/29 06:17:37;;;;;;;10.27;2.72;;;;;;;11.26;83.60;101677.22;5015436;28;20076;-75
2022/05/29 06:20:03;;;;;;;8.93;2.90;;;;;;;11.25;83.34;101674.59;5022949;28;20087;-75
2022/05/29 06:22:28;;;;;;;9.95;2.40;;;;;;;11.32;83.15;101668.84;5021395;28;20058;-75
2022/05/29 06:24:54;;;;;;;6.80;2.80;;;;;;;11.36;84.04;101667.28;5017439;28;20044;-75
2022/05/29 06:27:19;;;;;;;7.13;2.42;;;;;;;11.39;83.26;101678.56;5023625;28;20033;-75
2022/05/29 06:29:45;;;;;;;6.68;2.47;;;;;;;11.46;83.66;101672.81;5024004;28;20744;-75
2022/05/29 06:32:13;;;;;;;7.85;2.70;;;;;;;11.50;84.42;101678.97;5017575;28;20108;-75
2022/05/29 06:34:39;;;;;;;8.77;2.67;;;;;;;11.55;85.47;101670.59;5018794;28;20029;-75
2022/05/29 06:37:06;;;;;;;9.93;2.70;;;;;;;11.61;84.03;101677.66;5016414;28;20038;-75
2022/05/29 06:39:34;;;;;;;9.38;2.90;;;;;;;11.62;84.64;101674.25;5019711;28;20025;-75
2022/05/29 06:42:00;;;;;;;7.78;2.67;;;;;;;11.65;84.64;101673.47;5023241;28;20061;-76
2022/05/29 06:44:25;;;;;;;8.13;2.70;;;;;;;11.71;85.14;101673.69;5024868;28;20380;-75
2022/05/29 06:46:50;;;;;;;9.38;2.70;;;;;;;11.75;84.32;101675.59;5023239;28;20040;-75
2022/05/29 06:49:17;;;;;;;9.73;2.88;;;;;;;11.75;84.65;101662.69;5022250;28;20469;-75
2022/05/29 06:51:42;;;;;;;10.45;2.90;;;;;;;11.78;84.25;101675.72;5020509;28;20040;-75
2022/05/29 06:54:08;;;;;;;9.45;2.92;;;;;;;11.81;84.21;101671.56;5016896;28;20030;-75
2022/05/29 06:56:34;;;;;;;6.90;2.72;;;;;;;11.86;83.53;101678.59;5015683;28;20540;-75
2022/05/29 06:59:00;;;;;;;9.02;2.78;;;;;;;11.86;83.90;101673.44;5025548;28;20612;-75
2022/05/29 07:07:06;;;;;;;8.98;3.20;;;;;;;11.83;83.99;101674.22;5024007;28;20091;-75
2022/05/29 07:09:36;;;;;;;12.85;3.08;;;;;;;11.85;84.48;101667.41;5024771;28;20045;-74
2022/05/29 07:12:24;;;;;;;8.85;2.95;;;;;;;11.90;83.80;101663.28;5024897;28;20064;-75
2022/05/29 07:15:03;;;;;;;8.85;2.75;;;;;;;11.96;83.80;101670.38;5023841;28;20021;-75
2022/05/29 07:17:29;;;;;;;4.95;2.65;;;;;;;11.98;83.97;101669.59;5011696;28;20025;-75
2022/05/29 07:19:54;;;;;;;11.45;2.88;;;;;;;12.00;84.45;101662.78;5030886;28;20109;-75
2022/05/29 07:22:20;;;;;;;8.88;3.15;;;;;;;12.06;83.68;101673.28;5019618;28;20052;-76
2022/05/29 07:24:46;;;;;;;6.78;2.55;;;;;;;12.11;84.51;101672.59;5022180;28;20040;-75
2022/05/29 07:27:12;;;;;;;10.63;2.97;;;;;;;12.12;84.78;101674.34;5012113;28;20114;-75
2022/05/29 07:29:37;;;;;;;9.52;2.90;;;;;;;12.16;85.56;101671.94;5014754;28;20600;-75
2022/05/29 07:32:04;;;;;;;9.60;2.85;;;;;;;12.16;83.33;101668.47;5017541;28;20040;-75
2022/05/29 07:34:30;;;;;;;8.10;2.60;;;;;;;12.17;83.40;101665.06;5016616;28;20677;-75
2022/05/29 07:37:10;;;;;;;9.75;2.45;;;;;;;12.17;81.64;101658.19;5010039;28;20037;-76
2022/05/29 07:39:42;;;;;;;9.63;2.47;;;;;;;12.20;82.50;101655.75;5011892;28;20529;-75
2022/05/29 07:44:52;;;;;;;6.45;2.10;;;;;;;12.30;82.65;101662.94;5004465;28;20569;-75
2022/05/29 07:47:19;;;;;;;10.52;2.50;;;;;;;12.35;82.70;101655.38;5006647;28;20030;-75
2022/05/29 07:49:45;;;;;;;7.13;1.85;;;;;;;12.42;81.20;101659.03;5012630;28;20026;-75
2022/05/29 07:52:10;;;;;;;8.85;2.33;;;;;;;12.49;79.85;101650.66;5015297;28;20036;-74
2022/05/29 07:54:36;;;;;;;6.82;2.70;;;;;;;12.58;80.56;101658.72;5021091;28;20060;-80
2022/05/29 07:57:02;;;;;;;7.85;2.10;;;;;;;12.75;80.72;101654.97;5017439;28;20029;-75
2022/05/29 07:59:29;;;;;;;10.18;2.03;;;;;;;12.93;78.99;101646.06;5015959;28;20031;-76
2022/05/29 08:01:57;;;;;;;8.15;2.50;;;;;;;13.14;78.93;101652.72;4995434;28;20135;-76
2022/05/29 08:04:22;;;;;;;8.75;2.28;;;;;;;13.32;77.18;101642.09;5017286;28;20041;-75
2022/05/29 08:06:48;;;;;;;7.78;2.03;;;;;;;13.47;74.27;101643.38;5014494;28;20052;-71
2022/05/29 08:09:14;;;;;;;6.45;1.80;;;;;;;13.47;71.29;101635.63;5013910;28;20104;-75
2022/05/29 08:11:39;;;;;;;7.28;2.17;;;;;;;13.44;73.01;101641.59;5011745;28;20034;-75
2022/05/29 08:14:05;;;;;;;7.18;2.17;;;;;;;13.45;73.74;101643.34;5018230;28;20040;-76
2022/05/29 08:16:31;;;;;;;6.97;2.10;;;;;;;13.33;72.02;101638.69;5020046;28;20040;-75
2022/05/29 08:18:56;;;;;;;9.65;2.22;;;;;;;13.29;72.39;101636.00;5022776;28;20033;-75
2022/05/29 08:21:21;;;;;;;8.85;2.20;;;;;;;13.24;72.44;101635.84;5017313;28;20491;-76
2022/05/29 08:32:36;;;;;;;7.10;1.75;;;;;;;13.14;72.39;101639.81;4972232;28;20034;-75
2022/05/29 08:35:01;;;;;;;12.38;2.08;;;;;;;13.07;71.75;101637.03;5014090;28;20108;-75
2022/05/29 08:37:27;;;;;;;11.32;2.10;;;;;;;13.14;71.95;101628.63;5026016;28;20043;-76
2022/05/29 08:39:52;;;;;;;5.65;1.92;;;;;;;13.16;71.06;101629.53;5029611;28;20033;-76
2022/05/29 08:42:19;;;;;;;9.80;1.63;;;;;;;13.25;70.88;101636.72;5022852;28;20481;-75
2022/05/29 08:44:52;;;;;;;8.52;2.28;;;;;;;13.24;70.90;101630.69;5025226;28;20021;-75
2022/05/29 08:47:25;;;;;;;10.02;1.92;;;;;;;13.39;70.25;101635.41;5019808;28;20026;-75
2022/05/29 08:49:50;;;;;;;7.63;2.00;;;;;;;13.50;70.86;101630.56;5020984;28;20412;-76
2022/05/29 08:52:25;;;;;;;6.55;1.63;;;;;;;13.60;68.90;101633.44;5029353;28;20037;-76
2022/05/29 08:54:57;;;;;;;5.75;1.77;;;;;;;13.77;69.49;101631.34;5019094;28;20057;-76
2022/05/29 08:57:41;;;;;;;9.27;1.90;;;;;;;13.88;69.11;101621.25;5018767;28;20060;-76
2022/05/29 09:00:45;;;;;;;11.07;1.77;;;;;;;13.99;68.32;101616.38;5021393;28;20029;-76
2022/05/29 09:03:23;;;;;;;6.32;1.77;;;;;;;13.95;66.83;101610.22;5025899;28;20026;-76
2022/05/29 09:05:56;;;;;;;7.35;1.60;;;;;;;13.94;67.03;101611.94;5023727;28;20044;-76
2022/05/29 09:08:38;;;;;;;5.00;1.52;;;;;;;13.80;66.71;101615.88;5024013;28;20044;-75
2022/05/29 09:11:16;;;;;;;7.38;1.70;;;;;;;13.78;68.62;101617.56;5023440;28;20126;-75
2022/05/29 09:13:52;;;;;;;6.30;1.42;;;;;;;13.78;68.49;101611.53;5024049;28;20064;-75
2022/05/29 09:16:21;;;;;;;4.68;1.55;;;;;;;13.72;68.46;101617.41;5028388;28;20155;-75
2022/05/29 09:19:10;;;;;;;8.55;1.65;;;;;;;13.80;68.94;101612.44;5021357;28;20018;-75
2022/05/29 09:21:49;;;;;;;9.35;1.52;;;;;;;13.85;68.68;101603.97;5023575;28;20030;-75
2022/05/29 09:24:33;;;;;;;;;;;;;;;14.04;67.81;101599.28;5020863;28;20444;-75
2022/05/29 09:26:58;;;;;;;4.38;1.15;;;;;;;14.10;64.05;101591.69;5039930;28;19913;-75
2022/05/29 09:29:24;;;;;;;4.70;1.10;;;;;;;14.21;62.92;101583.34;5020849;28;20091;-75
2022/05/29 09:31:49;;;;;;;5.95;1.00;;;;;;;14.36;63.26;101576.78;5024803;28;20404;-75
2022/05/29 09:34:15;;;;;;;4.82;1.40;;;;;;;14.40;62.62;101584.66;5026733;28;20057;-75
2022/05/29 09:37:02;;;;;;;5.55;1.25;;;;;;;14.46;62.72;101579.66;5021680;28;20037;-75
2022/05/29 09:39:39;;;;;;;4.15;0.98;;;;;;;14.42;61.91;101570.03;5020467;28;20038;-75
2022/05/29 09:42:29;;;;;;;4.65;1.00;;;;;;;14.41;62.01;101581.22;5024190;28;20439;-75
2022/05/29 09:45:22;;;;;;;5.15;1.05;;;;;;;14.38;62.26;101570.81;5020421;28;20037;-75
2022/05/29 09:50:50;;;;;;;3.70;0.93;;;;;;;14.32;60.04;101580.13;5015957;28;20052;-75
2022/05/29 09:53:23;;;;;;;3.70;1.27;;;;;;;14.50;60.97;101578.03;5015844;28;20108;-75
2022/05/29 09:55:53;;;;;;;6.78;1.33;;;;;;;14.66;60.52;101567.19;5009044;28;20033;-75
2022/05/29 09:58:31;;;;;;;4.53;1.00;;;;;;;14.85;60.41;101563.28;5010538;28;20042;-75
2022/05/29 10:01:03;;;;;;;5.63;1.10;;;;;;;15.03;59.66;101558.47;5011484;28;20029;-76
2022/05/29 10:03:50;;;;;;;3.05;0.90;;;;;;;15.02;58.44;101572.28;5011204;28;20033;-77
2022/05/29 10:06:21;;;;;;;4.03;0.90;;;;;;;14.81;57.94;101577.00;5011167;28;20029;-75
2022/05/29 10:08:47;;;;;;;4.10;0.65;;;;;;;14.65;58.47;101577.50;5019011;28;20040;-75
2022/05/29 10:11:18;;;;;;;1.60;0.60;;;;;;;14.44;59.05;101581.31;5018154;28;20031;-75
2022/05/29 10:13:44;;;;;;;2.67;0.57;;;;;;;14.26;61.39;101579.97;5023603;28;20053;-75
2022/05/29 10:16:12;;;;;;;2.65;0.60;;;;;;;14.22;62.07;101589.41;5017720;28;20034;-75
2022/05/29 10:18:42;;;;;;;2.33;0.50;;;;;;;14.16;64.03;101576.31;5018588;28;20412;-75
2022/05/29 10:21:10;;;;;;;1.98;0.50;;;;;;;14.13;61.92;101584.84;5019381;28;20369;-75
2022/05/29 10:23:37;;;;;;;1.52;0.45;;;;;;;14.01;61.44;101583.66;5019427;28;20488;-75
2022/05/29 10:26:23;;;;;;;4.28;0.50;;;;;;;14.00;61.37;101582.78;5020603;28;20511;-75
2022/05/29 10:28:49;;;;;;;2.88;0.40;;;;;;;13.88;62.16;101577.31;5016153;28;20092;-75
2022/05/29 10:31:23;;;;;;;2.72;0.50;;;;;;;13.87;61.64;101580.72;5013333;28;20033;-75
2022/05/29 10:34:07;;;;;;;4.80;0.57;;;;;;;13.93;62.41;101576.59;5018944;28;20388;-75
2022/05/29 10:36:34;;;;;;;1.27;0.50;;;;;;;13.97;63.74;101580.16;5021247;28;20038;-76
2022/05/29 10:39:28;;;;;;;2.45;0.50;;;;;;;14.06;63.29;101577.78;5009853;28;20040;-75
2022/05/29 10:41:55;;;;;;;2.80;0.60;;;;;;;14.06;62.84;101582.06;5011984;28;20049;-75
2022/05/29 10:44:57;;;;;;;2.42;0.60;;;;;;;14.18;63.58;101578.09;5012423;28;20464;-76
2022/05/29 10:47:45;;;;;;;1.30;0.63;;;;;;;14.28;64.61;101580.91;4987038;28;20055;-75
2022/05/29 10:50:22;;;;;;;2.15;0.60;;;;;;;14.33;63.88;101590.53;5015178;28;20061;-75
2022/05/29 10:53:02;;;;;;;1.88;0.70;;;;;;;14.26;64.89;101595.50;5016396;28;20424;-75
2022/05/29 10:55:38;;;;;;;4.28;0.90;;;;;;;14.05;67.50;101595.84;5014418;28;20038;-76
2022/05/29 10:58:22;;;;;;;3.47;0.68;;;;;;;13.95;69.12;101590.47;5012413;28;20030;-76
2022/05/29 11:04:06;;;;;;;3.05;0.70;;;;;;;13.72;72.93;101588.97;5006677;28;20787;-76
2022/05/29 11:07:07;;;;;;;3.53;0.80;;;;;;;13.65;73.26;101584.44;5011791;28;20060;-75
2022/05/29 11:09:54;;;;;;;3.15;1.00;;;;;;;13.64;74.99;101581.00;4944488;28;20122;-76
2022/05/29 11:12:53;;;;;;;2.33;0.75;;;;;;;13.72;75.08;101583.81;5008178;28;20050;-75
2022/05/29 11:15:33;;;;;;;2.83;0.82;;;;;;;13.76;75.26;101584.75;5013930;28;20033;-75
2022/05/29 11:18:07;;;;;;;3.13;0.80;;;;;;;13.81;76.00;101585.75;5008691;28;20037;-75
2022/05/29 11:20:57;;;;;;;2.85;0.73;;;;;;;13.97;74.61;101581.88;5013115;28;20108;-75
2022/05/29 11:23:41;;;;;;;2.88;1.00;;;;;;;13.98;72.02;101581.03;5008596;28;20720;-74
2022/05/29 11:26:14;;;;;;;4.43;1.13;;;;;;;14.10;74.83;101576.16;5011316;28;21953;-75
2022/05/29 11:29:03;;;;;;;3.83;1.00;;;;;;;14.26;74.73;101583.47;5012079;28;20029;-75
2022/05/29 11:32:02;;;;;;;2.80;1.00;;;;;;;14.35;74.25;101580.22;5009999;28;20587;-77
2022/05/29 11:34:48;;;;;;;1.65;0.90;;;;;;;14.24;73.34;101577.34;5009405;28;20029;-76
2022/05/29 11:37:30;;;;;;;1.83;0.60;;;;;;;14.13;73.41;101578.81;5011093;28;20072;-76
2022/05/29 11:40:08;;;;;;;1.58;0.52;;;;;;;14.02;72.49;101578.56;5013429;28;20017;-76
2022/05/29 11:42:43;;;;;;;2.25;0.60;;;;;;;14.03;71.85;101572.53;5014111;28;20056;-75
2022/05/29 11:45:08;;;;;;;1.55;0.40;;;;;;;13.95;71.75;101574.94;5023420;28;20428;-75
2022/05/29 11:53:35;;;;;;;1.80;0.40;;;;;;;13.83;71.29;101573.72;5018169;28;20639;-75
2022/05/29 11:56:06;;;;;;;1.02;0.25;;;;;;;13.71;70.12;101574.31;5018350;28;20036;-75
2022/05/29 11:58:42;;;;;;;2.45;0.57;;;;;;;13.68;71.56;101572.50;5012493;28;20057;-75
2022/05/29 12:01:16;;;;;;;1.15;0.30;;;;;;;13.65;71.65;101564.69;5015676;28;20365;-75
2022/05/29 12:03:52;;;;;;;0.70;0.30;;;;;;;13.66;72.08;101568.13;5021348;28;20037;-75
2022/05/29 12:06:31;;;;;;;2.25;0.50;;;;;;;13.71;72.53;101560.47;5014502;28;20391;-76
2022/05/29 12:09:05;;;;;;;1.98;0.50;;;;;;;13.69;72.70;101561.31;5018167;28;21252;-75
2022/05/29 12:11:42;;;;;;;2.70;0.85;;;;;;;13.69;74.56;101561.31;5014405;28;20387;-75
2022/05/29 12:14:29;;;;;;;3.17;0.95;;;;;;;13.75;76.68;101565.78;5021066;28;20140;-75
2022/05/29 12:17:07;;;;;;;2.20;0.70;;;;;;;13.74;75.70;101571.78;5020211;28;20052;-75
2022/05/29 12:19:41;;;;;;;3.08;0.70;;;;;;;13.76;75.05;101567.53;5023383;28;20021;-75
2022/05/29 12:22:09;;;;;;;3.05;0.88;;;;;;;13.71;75.50;101565.66;5021310;28;20038;-74
2022/05/29 12:24:43;;;;;;;2.45;0.70;;;;;;;13.68;74.71;101567.31;5028394;28;20021;-74